West Bend, WI

02:24 AM CST die 29o November, anno 2014 (GMT -0600)
Infinity Networking | Change Station
CLOSE
Current Station
Personal Weather Stations
Location: WestBend, WI
Elevation: 921 ft
Nearby Weather Stations

Elev 921 ft 43.43 °N, 88.16 °W | Updated 11 seconds ago

Clear
Serena
29.0 °F
Feels Like 29 °F
N
0.0
Ventus Variabilis Ventus from Magis Auster quam Eurus
Gusts 0.0 mph

Hodie
High -- | Low -- °F
--% Chance of Precip.
Yesterday
High -- | Low -- °F
Precip. -- in
7:03 AM 4:18 PM
Waxing Crescent, 49% visible
Pressio 29.78 in
Visibilitas 5.0 milia passuum
Clouds Serena
Frigus Venti 29 °F
Frigus in quo Ros apparet 26 °F
Umor 89%
Rainfall 0.00 in
Snow Depth Not available.
UV 0.0 out of 12
Pollen .10 out of 12
Air Quality Not available.
Flu Activity Not available.
METAR KETB 290810Z AUTO 14003KT 5SM BR CLR M01/M02 A2978 RMK AO2

More Conditions Fewer Conditions

Pressio 29.78 in
Visibilitas 5.0 milia passuum
Clouds Serena
Frigus Venti 29 °F
Frigus in quo Ros apparet 26 °F
Umor 89%
Rainfall 0.00 in
Snow Depth Not available.
UV 0.0 out of 12
Pollen .10 out of 12
Air Quality Not available.
Flu Activity Not available.
METAR KETB 290810Z AUTO 14003KT 5SM BR CLR M01/M02 A2978 RMK AO2

More Conditions Fewer Conditions

10-Day Weather Forecast

Almanac

Astronomy

Nov. 29, 2014 Rise Set
Actual Time
Civil Twilight
Nautical Twilight
Astronomical Twilight
Moon
Length Of Visible Light
Length of Day
Tomorrow will be .
, % of the Moon is Illuminated

Today's Extremes

State Highs State Lows

Community

WunderPhotos

Upload Photos

1,774,432 photos uploaded!

WunderBlogs® & News

Nearby

Air Quality

  Air Quality AQ Index Pollutant
Not available.

Snow Depth

Station Depth Elevation

Earthquake Activity

City Distance Mag. Time & Date
Minimum magnitude displayed is 2.5.

Coastal Water Temperatures

Locus Calor

Nearby Weather Stations